sensor_id;sensor_type;location;lat;lon;timestamp;pressure;altitude;pressure_sealevel;temperature;humidity
5146;BME280;2591;48.144;15.152;2023-02-28T00:00:20;77909.53;;;-144.65;76.43
5146;BME280;2591;48.144;15.152;2023-02-28T00:02:48;77917.69;;;-144.65;77.47
5146;BME280;2591;48.144;15.152;2023-02-28T00:05:19;77925.84;;;-144.65;77.33
5146;BME280;2591;48.144;15.152;2023-02-28T00:07:47;77909.53;;;-144.65;77.15
5146;BME280;2591;48.144;15.152;2023-02-28T00:10:17;77917.69;;;-144.65;77.47
5146;BME280;2591;48.144;15.152;2023-02-28T00:12:47;77921.78;;;-144.65;77.77
5146;BME280;2591;48.144;15.152;2023-02-28T00:15:15;77917.69;;;-144.65;77.99
5146;BME280;2591;48.144;15.152;2023-02-28T00:17:43;77921.78;;;-144.65;77.53
5146;BME280;2591;48.144;15.152;2023-02-28T00:20:12;77923.81;;;-144.65;77.55
5146;BME280;2591;48.144;15.152;2023-02-28T00:22:43;77929.94;;;-144.65;78.08
5146;BME280;2591;48.144;15.152;2023-02-28T00:25:13;77921.78;;;-144.65;77.82
5146;BME280;2591;48.144;15.152;2023-02-28T00:27:41;77917.69;;;-144.65;77.22
5146;BME280;2591;48.144;15.152;2023-02-28T00:30:11;77921.78;;;-144.65;77.07
5146;BME280;2591;48.144;15.152;2023-02-28T00:32:40;77936.06;;;-144.65;77.43
5146;BME280;2591;48.144;15.152;2023-02-28T00:35:09;77950.34;;;-144.65;77.88
5146;BME280;2591;48.144;15.152;2023-02-28T00:37:37;77948.28;;;-144.65;78.47
5146;BME280;2591;48.144;15.152;2023-02-28T00:40:08;77970.72;;;-144.65;78.61
5146;BME280;2591;48.144;15.152;2023-02-28T00:42:36;77966.66;;;-144.65;78.86
5146;BME280;2591;48.144;15.152;2023-02-28T00:45:05;77974.81;;;-144.65;79.15
5146;BME280;2591;48.144;15.152;2023-02-28T00:47:34;77980.94;;;-144.65;79.42
5146;BME280;2591;48.144;15.152;2023-02-28T00:50:03;77987.06;;;-144.65;79.67
5146;BME280;2591;48.144;15.152;2023-02-28T00:52:31;77978.88;;;-144.65;80.22
5146;BME280;2591;48.144;15.152;2023-02-28T00:54:59;77974.81;;;-144.65;79.97
5146;BME280;2591;48.144;15.152;2023-02-28T00:57:28;77985.00;;;-144.65;80.37
5146;BME280;2591;48.144;15.152;2023-02-28T00:59:56;77991.13;;;-144.65;80.86
5146;BME280;2591;48.144;15.152;2023-02-28T01:02:23;77978.88;;;-144.65;81.10
5146;BME280;2591;48.144;15.152;2023-02-28T01:04:51;77995.22;;;-144.65;81.23
5146;BME280;2591;48.144;15.152;2023-02-28T01:07:20;77991.13;;;-144.65;81.51
5146;BME280;2591;48.144;15.152;2023-02-28T01:09:48;77995.22;;;-144.65;81.99
5146;BME280;2591;48.144;15.152;2023-02-28T01:12:16;77991.13;;;-144.65;81.62
5146;BME280;2591;48.144;15.152;2023-02-28T01:14:45;77989.09;;;-144.65;81.23
5146;BME280;2591;48.144;15.152;2023-02-28T01:17:12;77980.94;;;-144.65;81.25
5146;BME280;2591;48.144;15.152;2023-02-28T01:19:40;77995.22;;;-144.65;81.55
5146;BME280;2591;48.144;15.152;2023-02-28T01:22:08;77999.28;;;-144.65;81.89
5146;BME280;2591;48.144;15.152;2023-02-28T01:24:37;78001.31;;;-144.65;81.62
5146;BME280;2591;48.144;15.152;2023-02-28T01:27:04;77999.28;;;-144.65;81.64
5146;BME280;2591;48.144;15.152;2023-02-28T01:29:32;77991.13;;;-144.65;81.95
5146;BME280;2591;48.144;15.152;2023-02-28T01:32:01;78003.38;;;-144.65;82.57
5146;BME280;2591;48.144;15.152;2023-02-28T01:34:29;78007.44;;;-144.65;82.59
5146;BME280;2591;48.144;15.152;2023-02-28T01:36:57;78003.38;;;-144.65;82.63
5146;BME280;2591;48.144;15.152;2023-02-28T01:39:26;78011.53;;;-144.65;83.05
5146;BME280;2591;48.144;15.152;2023-02-28T01:41:54;78011.53;;;-144.65;83.05
5146;BME280;2591;48.144;15.152;2023-02-28T01:44:58;78015.59;;;-144.65;82.47
5146;BME280;2591;48.144;15.152;2023-02-28T01:47:30;78003.38;;;-144.65;82.28
5146;BME280;2591;48.144;15.152;2023-02-28T01:50:01;78011.53;;;-144.65;82.15
5146;BME280;2591;48.144;15.152;2023-02-28T01:52:30;78007.44;;;-144.65;82.90
5146;BME280;2591;48.144;15.152;2023-02-28T01:55:01;78015.59;;;-144.65;82.29
5146;BME280;2591;48.144;15.152;2023-02-28T01:57:33;78015.59;;;-144.65;82.28
5146;BME280;2591;48.144;15.152;2023-02-28T02:00:06;78031.94;;;-144.65;82.81
5146;BME280;2591;48.144;15.152;2023-02-28T02:02:37;78019.69;;;-144.65;82.80
5146;BME280;2591;48.144;15.152;2023-02-28T02:05:07;78019.69;;;-144.65;82.84
5146;BME280;2591;48.144;15.152;2023-02-28T02:07:37;78017.66;;;-144.65;82.57
5146;BME280;2591;48.144;15.152;2023-02-28T02:10:11;78019.69;;;-144.65;82.88
5146;BME280;2591;48.144;15.152;2023-02-28T02:13:05;78017.66;;;-144.65;83.11
5146;BME280;2591;48.144;15.152;2023-02-28T02:15:41;78015.59;;;-144.65;83.06
5146;BME280;2591;48.144;15.152;2023-02-28T02:18:19;78021.72;;;-144.65;83.21
5146;BME280;2591;48.144;15.152;2023-02-28T02:21:41;78023.78;;;-144.65;83.43
5146;BME280;2591;48.144;15.152;2023-02-28T02:27:19;78027.84;;;-144.65;83.32
5146;BME280;2591;48.144;15.152;2023-02-28T02:30:21;78027.84;;;-144.65;83.43
5146;BME280;2591;48.144;15.152;2023-02-28T02:33:04;78019.69;;;-144.65;83.13
5146;BME280;2591;48.144;15.152;2023-02-28T02:35:40;78011.53;;;-144.65;83.18
5146;BME280;2591;48.144;15.152;2023-02-28T02:38:15;78021.72;;;-144.65;83.54
5146;BME280;2591;48.144;15.152;2023-02-28T02:40:50;78021.72;;;-144.65;83.55
5146;BME280;2591;48.144;15.152;2023-02-28T02:43:25;78019.69;;;-144.65;84.02
5146;BME280;2591;48.144;15.152;2023-02-28T02:45:59;78017.66;;;-144.65;84.20
5146;BME280;2591;48.144;15.152;2023-02-28T02:48:31;78023.78;;;-144.65;83.65
5146;BME280;2591;48.144;15.152;2023-02-28T02:51:06;78017.66;;;-144.65;83.40
5146;BME280;2591;48.144;15.152;2023-02-28T02:53:42;78019.69;;;-144.65;83.31
5146;BME280;2591;48.144;15.152;2023-02-28T02:56:12;78025.81;;;-144.65;83.29
5146;BME280;2591;48.144;15.152;2023-02-28T02:58:43;78023.78;;;-144.65;83.85
5146;BME280;2591;48.144;15.152;2023-02-28T03:01:16;78027.84;;;-144.65;83.60
5146;BME280;2591;48.144;15.152;2023-02-28T03:03:56;78027.84;;;-144.65;83.89
5146;BME280;2591;48.144;15.152;2023-02-28T03:06:26;78036.00;;;-144.65;83.78
5146;BME280;2591;48.144;15.152;2023-02-28T03:08:54;78027.84;;;-144.65;82.72
5146;BME280;2591;48.144;15.152;2023-02-28T03:11:22;78040.09;;;-144.65;83.03
5146;BME280;2591;48.144;15.152;2023-02-28T03:17:11;78042.13;;;-144.65;83.38
5146;BME280;2591;48.144;15.152;2023-02-28T03:19:48;78044.16;;;-144.65;83.76
5146;BME280;2591;48.144;15.152;2023-02-28T03:22:41;78060.50;;;-144.65;83.63
5146;BME280;2591;48.144;15.152;2023-02-28T03:25:18;78056.41;;;-144.65;83.51
5146;BME280;2591;48.144;15.152;2023-02-28T03:27:52;78040.09;;;-144.65;83.27
5146;BME280;2591;48.144;15.152;2023-02-28T03:30:24;78044.16;;;-144.65;83.15
5146;BME280;2591;48.144;15.152;2023-02-28T03:32:57;78040.09;;;-144.65;83.40
5146;BME280;2591;48.144;15.152;2023-02-28T03:35:28;78052.31;;;-144.65;83.32
5146;BME280;2591;48.144;15.152;2023-02-28T03:38:04;78052.31;;;-144.65;83.64
5146;BME280;2591;48.144;15.152;2023-02-28T03:40:34;78042.13;;;-144.65;83.01
5146;BME280;2591;48.144;15.152;2023-02-28T03:43:10;78023.78;;;-144.65;82.50
5146;BME280;2591;48.144;15.152;2023-02-28T03:45:40;78021.72;;;-144.65;81.49
5146;BME280;2591;48.144;15.152;2023-02-28T03:48:15;78027.84;;;-144.65;82.00
5146;BME280;2591;48.144;15.152;2023-02-28T03:50:46;78017.66;;;-144.65;82.35
5146;BME280;2591;48.144;15.152;2023-02-28T03:53:20;78036.00;;;-144.65;82.11
5146;BME280;2591;48.144;15.152;2023-02-28T03:55:52;78036.00;;;-144.65;82.66
5146;BME280;2591;48.144;15.152;2023-02-28T03:58:26;78048.25;;;-144.65;82.81
5146;BME280;2591;48.144;15.152;2023-02-28T04:01:00;78040.09;;;-144.65;82.83
5146;BME280;2591;48.144;15.152;2023-02-28T04:03:35;78044.16;;;-144.65;82.25
5146;BME280;2591;48.144;15.152;2023-02-28T04:06:04;78048.25;;;-144.65;82.68
5146;BME280;2591;48.144;15.152;2023-02-28T04:08:34;78040.09;;;-144.65;82.47
5146;BME280;2591;48.144;15.152;2023-02-28T04:11:04;78040.09;;;-144.65;81.81
5146;BME280;2591;48.144;15.152;2023-02-28T04:13:34;78044.16;;;-144.65;81.98
5146;BME280;2591;48.144;15.152;2023-02-28T04:16:01;78044.16;;;-144.65;82.05
5146;BME280;2591;48.144;15.152;2023-02-28T04:18:50;78044.16;;;-144.65;82.55
5146;BME280;2591;48.144;15.152;2023-02-28T04:21:17;78036.00;;;-144.65;82.11
5146;BME280;2591;48.144;15.152;2023-02-28T04:23:48;78040.09;;;-144.65;81.91
5146;BME280;2591;48.144;15.152;2023-02-28T04:26:16;78036.00;;;-144.65;82.11
5146;BME280;2591;48.144;15.152;2023-02-28T04:28:44;78027.84;;;-144.65;81.69
5146;BME280;2591;48.144;15.152;2023-02-28T04:31:12;78040.09;;;-144.65;81.33
5146;BME280;2591;48.144;15.152;2023-02-28T04:33:39;78040.09;;;-144.65;81.82
5146;BME280;2591;48.144;15.152;2023-02-28T04:36:08;78052.31;;;-144.65;82.13
5146;BME280;2591;48.144;15.152;2023-02-28T04:38:37;78046.22;;;-144.65;82.08
5146;BME280;2591;48.144;15.152;2023-02-28T04:41:06;78056.41;;;-144.65;81.49
5146;BME280;2591;48.144;15.152;2023-02-28T04:43:34;78044.16;;;-144.65;81.73
5146;BME280;2591;48.144;15.152;2023-02-28T04:46:04;78060.50;;;-144.65;82.08
5146;BME280;2591;48.144;15.152;2023-02-28T04:48:35;78066.59;;;-144.65;82.46
5146;BME280;2591;48.144;15.152;2023-02-28T04:51:05;78072.72;;;-144.65;82.54
5146;BME280;2591;48.144;15.152;2023-02-28T04:53:33;78080.88;;;-144.65;82.78
5146;BME280;2591;48.144;15.152;2023-02-28T04:56:02;78076.81;;;-144.65;83.25
5146;BME280;2591;48.144;15.152;2023-02-28T04:58:32;78076.81;;;-144.65;82.81
5146;BME280;2591;48.144;15.152;2023-02-28T05:01:01;78076.81;;;-144.65;83.16
5146;BME280;2591;48.144;15.152;2023-02-28T05:03:30;78089.03;;;-144.65;83.65
5146;BME280;2591;48.144;15.152;2023-02-28T05:05:58;78084.97;;;-144.65;83.91
5146;BME280;2591;48.144;15.152;2023-02-28T05:08:25;78080.88;;;-144.65;84.41
5146;BME280;2591;48.144;15.152;2023-02-28T05:10:56;78080.88;;;-144.65;83.68
5146;BME280;2591;48.144;15.152;2023-02-28T05:13:23;78091.09;;;-144.65;83.38
5146;BME280;2591;48.144;15.152;2023-02-28T05:15:53;78084.97;;;-144.65;83.75
5146;BME280;2591;48.144;15.152;2023-02-28T05:18:20;78089.03;;;-144.65;83.36
5146;BME280;2591;48.144;15.152;2023-02-28T05:20:48;78084.97;;;-144.65;82.92
5146;BME280;2591;48.144;15.152;2023-02-28T05:23:17;78084.97;;;-144.65;82.49
5146;BME280;2591;48.144;15.152;2023-02-28T05:25:47;78076.81;;;-144.65;83.22
5146;BME280;2591;48.144;15.152;2023-02-28T05:28:15;78084.97;;;-144.65;83.05
5146;BME280;2591;48.144;15.152;2023-02-28T05:30:42;78082.94;;;-144.65;83.07
5146;BME280;2591;48.144;15.152;2023-02-28T05:33:12;78076.81;;;-144.65;82.95
5146;BME280;2591;48.144;15.152;2023-02-28T05:35:41;78089.03;;;-144.65;82.77
5146;BME280;2591;48.144;15.152;2023-02-28T05:38:09;78080.88;;;-144.65;82.70
5146;BME280;2591;48.144;15.152;2023-02-28T05:40:38;78087.00;;;-144.65;82.86
5146;BME280;2591;48.144;15.152;2023-02-28T05:43:09;78084.97;;;-144.65;83.23
5146;BME280;2591;48.144;15.152;2023-02-28T05:45:38;78084.97;;;-144.65;82.90
5146;BME280;2591;48.144;15.152;2023-02-28T05:48:06;78089.03;;;-144.65;83.07
5146;BME280;2591;48.144;15.152;2023-02-28T05:50:35;78097.22;;;-144.65;83.03
5146;BME280;2591;48.144;15.152;2023-02-28T05:53:03;78089.03;;;-144.65;82.74
5146;BME280;2591;48.144;15.152;2023-02-28T05:55:30;78093.13;;;-144.65;83.04
5146;BME280;2591;48.144;15.152;2023-02-28T05:57:58;78093.13;;;-144.65;82.94
5146;BME280;2591;48.144;15.152;2023-02-28T06:00:26;78103.31;;;-144.65;83.05
5146;BME280;2591;48.144;15.152;2023-02-28T06:02:54;78093.13;;;-144.65;82.59
5146;BME280;2591;48.144;15.152;2023-02-28T06:05:24;78095.16;;;-144.65;82.99
5146;BME280;2591;48.144;15.152;2023-02-28T06:07:53;78093.13;;;-144.65;82.79
5146;BME280;2591;48.144;15.152;2023-02-28T06:10:21;78101.28;;;-144.65;83.38
5146;BME280;2591;48.144;15.152;2023-02-28T06:12:49;78093.13;;;-144.65;82.72
5146;BME280;2591;48.144;15.152;2023-02-28T06:15:17;78095.16;;;-144.65;83.08
5146;BME280;2591;48.144;15.152;2023-02-28T06:17:44;78082.94;;;-144.65;83.46
5146;BME280;2591;48.144;15.152;2023-02-28T06:20:13;78074.78;;;-144.65;82.85
5146;BME280;2591;48.144;15.152;2023-02-28T06:22:40;78089.03;;;-144.65;82.46
5146;BME280;2591;48.144;15.152;2023-02-28T06:25:10;78078.84;;;-144.65;82.66
5146;BME280;2591;48.144;15.152;2023-02-28T06:27:38;78072.72;;;-144.65;82.48
5146;BME280;2591;48.144;15.152;2023-02-28T06:30:07;78068.66;;;-144.65;82.75
5146;BME280;2591;48.144;15.152;2023-02-28T06:32:35;78070.69;;;-144.65;82.06
5146;BME280;2591;48.144;15.152;2023-02-28T06:35:03;78060.50;;;-144.65;81.95
5146;BME280;2591;48.144;15.152;2023-02-28T06:37:31;78060.50;;;-144.65;81.61
5146;BME280;2591;48.144;15.152;2023-02-28T06:39:59;78066.59;;;-144.65;81.96
5146;BME280;2591;48.144;15.152;2023-02-28T06:42:29;78058.44;;;-144.65;81.75
5146;BME280;2591;48.144;15.152;2023-02-28T06:44:57;78058.44;;;-144.65;81.64
5146;BME280;2591;48.144;15.152;2023-02-28T06:47:25;78040.09;;;-144.65;80.66
5146;BME280;2591;48.144;15.152;2023-02-28T06:49:53;78040.09;;;-144.65;80.61
5146;BME280;2591;48.144;15.152;2023-02-28T06:52:21;78044.16;;;-144.65;81.12
5146;BME280;2591;48.144;15.152;2023-02-28T06:54:49;78036.00;;;-144.65;81.42
5146;BME280;2591;48.144;15.152;2023-02-28T06:57:29;78027.84;;;-144.65;81.38
5146;BME280;2591;48.144;15.152;2023-02-28T06:59:58;78023.78;;;-144.65;81.35
5146;BME280;2591;48.144;15.152;2023-02-28T07:02:27;78013.56;;;-144.65;81.20
5146;BME280;2591;48.144;15.152;2023-02-28T07:04:55;78003.38;;;-144.65;80.59
5146;BME280;2591;48.144;15.152;2023-02-28T07:07:23;77997.25;;;-144.65;80.10
5146;BME280;2591;48.144;15.152;2023-02-28T07:09:51;77999.28;;;-144.65;80.57
5146;BME280;2591;48.144;15.152;2023-02-28T07:12:19;77989.09;;;-144.65;80.30
5146;BME280;2591;48.144;15.152;2023-02-28T07:14:48;77978.88;;;-144.65;79.99
5146;BME280;2591;48.144;15.152;2023-02-28T07:17:16;77968.69;;;-144.65;80.28
5146;BME280;2591;48.144;15.152;2023-02-28T07:19:44;77960.53;;;-144.65;79.49
5146;BME280;2591;48.144;15.152;2023-02-28T07:22:12;77942.16;;;-144.65;79.38
5146;BME280;2591;48.144;15.152;2023-02-28T07:24:41;77940.13;;;-144.65;78.88
5146;BME280;2591;48.144;15.152;2023-02-28T07:27:09;77927.88;;;-144.65;78.76
5146;BME280;2591;48.144;15.152;2023-02-28T07:29:37;77913.63;;;-144.65;79.05
5146;BME280;2591;48.144;15.152;2023-02-28T07:32:06;77893.22;;;-144.65;78.18
5146;BME280;2591;48.144;15.152;2023-02-28T07:34:34;77891.19;;;-144.65;78.17
5146;BME280;2591;48.144;15.152;2023-02-28T07:37:02;77868.75;;;-144.65;77.94
5146;BME280;2591;48.144;15.152;2023-02-28T07:39:30;77876.91;;;-144.65;77.59
5146;BME280;2591;48.144;15.152;2023-02-28T07:41:57;77856.50;;;-144.65;77.22
5146;BME280;2591;48.144;15.152;2023-02-28T07:44:26;77846.28;;;-144.65;76.66
5146;BME280;2591;48.144;15.152;2023-02-28T07:46:54;77844.25;;;-144.65;76.17
5146;BME280;2591;48.144;15.152;2023-02-28T07:49:23;77836.09;;;-144.65;75.66
5146;BME280;2591;48.144;15.152;2023-02-28T07:51:51;77834.06;;;-144.65;75.86
5146;BME280;2591;48.144;15.152;2023-02-28T07:54:18;77819.78;;;-144.65;75.38
5146;BME280;2591;48.144;15.152;2023-02-28T07:56:46;77799.38;;;-144.65;75.62
5146;BME280;2591;48.144;15.152;2023-02-28T07:59:14;77791.22;;;-144.65;74.30
5146;BME280;2591;48.144;15.152;2023-02-28T08:01:42;77803.47;;;-144.65;74.14
5146;BME280;2591;48.144;15.152;2023-02-28T08:04:11;77795.31;;;-144.65;73.99
5146;BME280;2591;48.144;15.152;2023-02-28T08:06:40;77774.91;;;-144.65;74.36
5146;BME280;2591;48.144;15.152;2023-02-28T08:09:08;77772.88;;;-144.65;73.53
5146;BME280;2591;48.144;15.152;2023-02-28T08:11:36;77772.88;;;-144.65;73.55
5146;BME280;2591;48.144;15.152;2023-02-28T08:14:03;77736.16;;;-144.65;73.75
5146;BME280;2591;48.144;15.152;2023-02-28T08:16:32;77730.03;;;-144.65;72.41
5146;BME280;2591;48.144;15.152;2023-02-28T08:19:00;77734.09;;;-144.65;72.63
5146;BME280;2591;48.144;15.152;2023-02-28T08:21:27;77713.72;;;-144.65;72.91
5146;BME280;2591;48.144;15.152;2023-02-28T08:23:57;77709.63;;;-144.65;72.27
5146;BME280;2591;48.144;15.152;2023-02-28T08:26:25;77705.56;;;-144.65;72.80
5146;BME280;2591;48.144;15.152;2023-02-28T08:28:53;77699.44;;;-144.65;72.77
5146;BME280;2591;48.144;15.152;2023-02-28T08:31:23;77689.25;;;-144.65;71.46
5146;BME280;2591;48.144;15.152;2023-02-28T08:33:51;77685.16;;;-144.65;72.50
5146;BME280;2591;48.144;15.152;2023-02-28T08:36:19;77693.31;;;-144.65;71.61
5146;BME280;2591;48.144;15.152;2023-02-28T08:38:47;77685.16;;;-144.65;72.44
5146;BME280;2591;48.144;15.152;2023-02-28T08:41:16;77644.38;;;-144.65;72.24
5146;BME280;2591;48.144;15.152;2023-02-28T08:43:44;77656.59;;;-144.65;71.04
5146;BME280;2591;48.144;15.152;2023-02-28T08:46:13;77648.44;;;-144.65;70.81
5146;BME280;2591;48.144;15.152;2023-02-28T08:48:41;77644.38;;;-144.65;70.87
5146;BME280;2591;48.144;15.152;2023-02-28T08:51:12;77664.75;;;-144.65;70.74
5146;BME280;2591;48.144;15.152;2023-02-28T08:53:40;77697.41;;;-144.65;71.65
5146;BME280;2591;48.144;15.152;2023-02-28T08:56:09;77695.34;;;-144.65;71.60
5146;BME280;2591;48.144;15.152;2023-02-28T08:58:39;77681.06;;;-144.65;72.08
5146;BME280;2591;48.144;15.152;2023-02-28T09:01:08;77668.84;;;-144.65;71.25
5146;BME280;2591;48.144;15.152;2023-02-28T09:03:36;77636.19;;;-144.65;71.24
5146;BME280;2591;48.144;15.152;2023-02-28T09:06:04;77619.88;;;-144.65;70.28
5146;BME280;2591;48.144;15.152;2023-02-28T09:08:33;77626.00;;;-144.65;69.93
5146;BME280;2591;48.144;15.152;2023-02-28T09:11:00;77619.88;;;-144.65;70.42
5146;BME280;2591;48.144;15.152;2023-02-28T09:13:30;77603.56;;;-144.65;70.39
5146;BME280;2591;48.144;15.152;2023-02-28T09:16:01;77572.97;;;-144.65;69.43
5146;BME280;2591;48.144;15.152;2023-02-28T09:18:30;77556.66;;;-144.65;70.54
5146;BME280;2591;48.144;15.152;2023-02-28T09:20:58;77542.38;;;-144.65;68.82
5146;BME280;2591;48.144;15.152;2023-02-28T09:23:26;77568.91;;;-144.65;69.43
5146;BME280;2591;48.144;15.152;2023-02-28T09:25:54;77564.81;;;-144.65;68.93
5146;BME280;2591;48.144;15.152;2023-02-28T09:28:23;77575.00;;;-144.65;69.06
5146;BME280;2591;48.144;15.152;2023-02-28T09:30:53;77554.63;;;-144.65;69.80
5146;BME280;2591;48.144;15.152;2023-02-28T09:33:22;77554.63;;;-144.65;68.54
5146;BME280;2591;48.144;15.152;2023-02-28T09:35:56;77550.53;;;-144.65;68.75
5146;BME280;2591;48.144;15.152;2023-02-28T09:38:25;77534.22;;;-144.65;68.84
5146;BME280;2591;48.144;15.152;2023-02-28T09:40:56;77509.75;;;-144.65;68.15
5146;BME280;2591;48.144;15.152;2023-02-28T09:43:26;77493.44;;;-144.65;67.76
5146;BME280;2591;48.144;15.152;2023-02-28T09:45:59;77491.38;;;-144.65;68.48
5146;BME280;2591;48.144;15.152;2023-02-28T09:48:32;77497.50;;;-144.65;67.47
5146;BME280;2591;48.144;15.152;2023-02-28T09:51:12;77501.59;;;-144.65;68.19
5146;BME280;2591;48.144;15.152;2023-02-28T09:53:42;77473.03;;;-144.65;67.82
5146;BME280;2591;48.144;15.152;2023-02-28T09:56:21;77468.94;;;-144.65;68.07
5146;BME280;2591;48.144;15.152;2023-02-28T09:58:57;77481.19;;;-144.65;67.63
5146;BME280;2591;48.144;15.152;2023-02-28T10:01:33;77468.94;;;-144.65;67.94
5146;BME280;2591;48.144;15.152;2023-02-28T10:04:11;77456.72;;;-144.65;67.13
5146;BME280;2591;48.144;15.152;2023-02-28T10:06:45;77434.28;;;-144.65;67.12
5146;BME280;2591;48.144;15.152;2023-02-28T10:09:16;77432.25;;;-144.65;67.63
5146;BME280;2591;48.144;15.152;2023-02-28T10:11:47;77399.59;;;-144.65;67.59
5146;BME280;2591;48.144;15.152;2023-02-28T10:14:21;77399.59;;;-144.65;66.36
5146;BME280;2591;48.144;15.152;2023-02-28T10:16:52;77391.44;;;-144.65;66.21
5146;BME280;2591;48.144;15.152;2023-02-28T10:19:26;77381.25;;;-144.65;65.93
5146;BME280;2591;48.144;15.152;2023-02-28T10:22:00;77375.13;;;-144.65;66.16
5146;BME280;2591;48.144;15.152;2023-02-28T10:24:30;77358.81;;;-144.65;66.19
5146;BME280;2591;48.144;15.152;2023-02-28T10:27:13;77342.50;;;-144.65;65.25
5146;BME280;2591;48.144;15.152;2023-02-28T10:29:44;77350.66;;;-144.65;66.43
5146;BME280;2591;48.144;15.152;2023-02-28T10:32:15;77346.56;;;-144.65;65.73
5146;BME280;2591;48.144;15.152;2023-02-28T10:34:51;77346.56;;;-144.65;66.22
5146;BME280;2591;48.144;15.152;2023-02-28T10:37:20;77350.66;;;-144.65;65.30
5146;BME280;2591;48.144;15.152;2023-02-28T10:39:48;77383.28;;;-144.65;65.83
5146;BME280;2591;48.144;15.152;2023-02-28T10:42:22;77371.06;;;-144.65;65.95
5146;BME280;2591;48.144;15.152;2023-02-28T10:45:09;77375.13;;;-144.65;65.82
5146;BME280;2591;48.144;15.152;2023-02-28T10:47:48;77358.81;;;-144.65;66.87
5146;BME280;2591;48.144;15.152;2023-02-28T10:50:34;77330.25;;;-144.65;65.88
5146;BME280;2591;48.144;15.152;2023-02-28T10:53:10;77309.88;;;-144.65;65.61
5146;BME280;2591;48.144;15.152;2023-02-28T10:55:42;77318.03;;;-144.65;65.61
5146;BME280;2591;48.144;15.152;2023-02-28T10:58:21;77322.09;;;-144.65;66.20
5146;BME280;2591;48.144;15.152;2023-02-28T11:00:50;77305.78;;;-144.65;65.25
5146;BME280;2591;48.144;15.152;2023-02-28T11:03:30;77297.63;;;-144.65;65.90
5146;BME280;2591;48.144;15.152;2023-02-28T11:06:05;77293.53;;;-144.65;66.16
5146;BME280;2591;48.144;15.152;2023-02-28T11:08:34;77275.19;;;-144.65;65.22
5146;BME280;2591;48.144;15.152;2023-02-28T11:11:11;77293.53;;;-144.65;65.07
5146;BME280;2591;48.144;15.152;2023-02-28T11:13:39;77277.22;;;-144.65;66.40
5146;BME280;2591;48.144;15.152;2023-02-28T11:16:10;77238.47;;;-144.65;65.92
5146;BME280;2591;48.144;15.152;2023-02-28T11:18:44;77234.41;;;-144.65;66.03
5146;BME280;2591;48.144;15.152;2023-02-28T11:21:25;77240.53;;;-144.65;64.59
5146;BME280;2591;48.144;15.152;2023-02-28T11:24:01;77252.75;;;-144.65;65.01
5146;BME280;2591;48.144;15.152;2023-02-28T11:26:38;77220.13;;;-144.65;65.19
5146;BME280;2591;48.144;15.152;2023-02-28T11:29:19;77191.56;;;-144.65;63.90
5146;BME280;2591;48.144;15.152;2023-02-28T11:32:16;77169.16;;;-144.65;63.13
5146;BME280;2591;48.144;15.152;2023-02-28T11:34:45;77171.19;;;-144.65;62.55
5146;BME280;2591;48.144;15.152;2023-02-28T11:37:16;77179.34;;;-144.65;62.50
5146;BME280;2591;48.144;15.152;2023-02-28T11:39:45;77191.56;;;-144.65;62.53
5146;BME280;2591;48.144;15.152;2023-02-28T11:42:28;77199.72;;;-144.65;63.38
5146;BME280;2591;48.144;15.152;2023-02-28T11:45:11;77189.53;;;-144.65;63.04
5146;BME280;2591;48.144;15.152;2023-02-28T11:47:45;77232.38;;;-144.65;64.01
5146;BME280;2591;48.144;15.152;2023-02-28T11:50:30;77211.97;;;-144.65;63.11
5146;BME280;2591;48.144;15.152;2023-02-28T11:53:10;77207.88;;;-144.65;63.53
5146;BME280;2591;48.144;15.152;2023-02-28T11:55:46;77171.19;;;-144.65;63.61
5146;BME280;2591;48.144;15.152;2023-02-28T11:58:33;77150.78;;;-144.65;63.19
5146;BME280;2591;48.144;15.152;2023-02-28T12:01:15;77152.81;;;-144.65;63.65
5146;BME280;2591;48.144;15.152;2023-02-28T12:03:58;77130.41;;;-144.65;62.42
5146;BME280;2591;48.144;15.152;2023-02-28T12:06:38;77136.50;;;-144.65;62.41
5146;BME280;2591;48.144;15.152;2023-02-28T12:09:23;77107.97;;;-144.65;62.43
5146;BME280;2591;48.144;15.152;2023-02-28T12:11:59;77097.75;;;-144.65;62.18
5146;BME280;2591;48.144;15.152;2023-02-28T12:14:49;77099.81;;;-144.65;62.70
5146;BME280;2591;48.144;15.152;2023-02-28T12:17:30;77099.81;;;-144.65;62.18
5146;BME280;2591;48.144;15.152;2023-02-28T12:20:08;77059.00;;;-144.65;61.77
5146;BME280;2591;48.144;15.152;2023-02-28T12:22:45;77048.81;;;-144.65;61.45
5146;BME280;2591;48.144;15.152;2023-02-28T12:25:39;77048.81;;;-144.65;62.21
5146;BME280;2591;48.144;15.152;2023-02-28T12:28:14;77054.94;;;-144.65;61.49
5146;BME280;2591;48.144;15.152;2023-02-28T12:30:50;77036.59;;;-144.65;61.74
5146;BME280;2591;48.144;15.152;2023-02-28T12:33:22;77032.50;;;-144.65;62.15
5146;BME280;2591;48.144;15.152;2023-02-28T12:35:54;77026.38;;;-144.65;62.56
5146;BME280;2591;48.144;15.152;2023-02-28T12:38:26;77044.75;;;-144.65;61.17
5146;BME280;2591;48.144;15.152;2023-02-28T12:40:58;77065.13;;;-144.65;61.20
5146;BME280;2591;48.144;15.152;2023-02-28T12:43:32;77073.28;;;-144.65;61.91
5146;BME280;2591;48.144;15.152;2023-02-28T12:46:06;77071.25;;;-144.65;61.47
5146;BME280;2591;48.144;15.152;2023-02-28T12:48:40;77056.97;;;-144.65;61.43
5146;BME280;2591;48.144;15.152;2023-02-28T12:51:10;77071.25;;;-144.65;61.47
5146;BME280;2591;48.144;15.152;2023-02-28T12:53:50;77054.94;;;-144.65;61.40
5146;BME280;2591;48.144;15.152;2023-02-28T12:56:28;77052.91;;;-144.65;60.60
5146;BME280;2591;48.144;15.152;2023-02-28T12:59:01;77048.81;;;-144.65;60.25
5146;BME280;2591;48.144;15.152;2023-02-28T13:01:44;77052.91;;;-144.65;60.22
5146;BME280;2591;48.144;15.152;2023-02-28T13:04:45;77036.59;;;-144.65;60.35
5146;BME280;2591;48.144;15.152;2023-02-28T13:07:41;77022.31;;;-144.65;60.83
5146;BME280;2591;48.144;15.152;2023-02-28T13:10:15;77020.25;;;-144.65;59.49
5146;BME280;2591;48.144;15.152;2023-02-28T13:12:50;77032.50;;;-144.65;59.37
5146;BME280;2591;48.144;15.152;2023-02-28T13:15:21;77050.84;;;-144.65;60.11
5146;BME280;2591;48.144;15.152;2023-02-28T13:17:52;77016.19;;;-144.65;60.06
5146;BME280;2591;48.144;15.152;2023-02-28T13:20:23;77016.19;;;-144.65;59.56